Aktuální počasí v Česku a ve světě - METAR

Seznam meteostanic umístěných nejčasteji na letišti v ČR a ve světě

Vyhledat místa podle abecedy:
A B C D E F G H I J K L M N O P Q R S T U V W X Y Z

Filtrovat:

ID stanice:
a/nebo
Název místa (fulltext):
 
Místo (ID)Naposledy načteno 
Červená - Opava (Cervena/uL) 25.02.2021 02:00 UTC Zobrazit data
Místo: Červená - Opava
Teplota: 8 °C (pocitová: 2 °C)
Vítr: 5 m/s z(e) 210°
Počasí:
Dohlednost: 20 km
Zákl. oblačnosti: N/A
Vlhkost: 66%
České Budějovice (C.Budej/po) 25.02.2021 02:00 UTC Zobrazit data
Místo: České Budějovice
Teplota: 1 °C (pocitová: -3.1 °C)
Vítr: 1 m/s z(e) 190°
Počasí:
Dohlednost: 14 km
Zákl. oblačnosti: N/A
Vlhkost: 93%
Cheb (Cheb) 25.02.2021 02:00 UTC Zobrazit data
Místo: Cheb
Teplota: 1 °C (pocitová: 13.8 °C)
Vítr: 0 m/s z(e) 0°
Počasí: zataženo
Dohlednost: 3900 m
Zákl. oblačnosti: N/A
Vlhkost: 100%
Chotusice - Čáslav (Caslav) 25.02.2021 02:00 UTC Zobrazit data
Místo: Chotusice - Čáslav
Teplota: 0 °C (pocitová: -4.3 °C)
Vítr: 1 m/s z(e) 320°
Počasí: mlha
Dohlednost: 100 m
Zákl. oblačnosti: 6/8 30 m
Vlhkost: 100%
Churáňov (Churanov) 25.02.2021 02:00 UTC Zobrazit data
Místo: Churáňov
Teplota: 6 °C (pocitová: 1.8 °C)
Vítr: 2 m/s z(e) 210°
Počasí:
Dohlednost: 25 km
Zákl. oblačnosti: N/A
Vlhkost: 46%
Cairo (HECA) 25.02.2021 02:00 UTC Zobrazit METAR
HECA 250200Z 28004KT CAVOK 13/12 Q1022 NOSIG
Canberra (YSCB) 25.02.2021 02:00 UTC Zobrazit METAR
YSCB 250200Z AUTO 36007KT 9999 // SCT017 BKN037 BKN046 20/16 Q1012
Caracas (SVMP) Zatím nenačteno  
Cayenne (SOCA) 25.02.2021 02:00 UTC Zobrazit METAR
SOCA 250200Z AUTO 06010KT 9999 FEW022 SCT032 OVC052 26/24 Q1012 NOSIG
Charlotte Amalie (TIST) 25.02.2021 01:53 UTC Zobrazit METAR
TIST 250153Z 08007KT 10SM FEW030 SCT060 26/18 A3011 RMK AO2 SLP195 T02560183
Chisinau (LUKK) 25.02.2021 02:00 UTC Zobrazit METAR
LUKK 250200Z 28002KT 6000 SCT046 03/02 Q1032 R26/120095 TEMPO 2800 BR
Colombo (VCBI) 25.02.2021 02:10 UTC Zobrazit METAR
VCBI 250210Z 06002KT 9000 FEW018 25/23 Q1012 NOSIG
Conakry (GUCY) 25.02.2021 02:00 UTC Zobrazit METAR
GUCY 250200Z 28004KT 2000 DU NSC 27/23 Q1012 NOSIG
Constanta (LRCK) 25.02.2021 02:00 UTC Zobrazit METAR
LRCK 250200Z 26006KT 2000 BR NSC 03/03 Q1034 NOSIG
Constantine (DABC) 25.02.2021 01:00 UTC Zobrazit METAR
DABC 250100Z 19002KT CAVOK 05/03 Q1031
Copenhagen (EKCH) 25.02.2021 01:50 UTC Zobrazit METAR
EKCH 250150Z AUTO 22005KT 9999 OVC081/// 08/05 Q1023 NOSIG
Cork (EICK) 25.02.2021 02:00 UTC Zobrazit METAR
EICK 250200Z 23008KT 9999 FEW028 SCT240 03/02 Q1020 NOSIG
Cotonou (DBBB) 25.02.2021 02:00 UTC Zobrazit METAR
DBBB 250200Z 24011KT 8000 SCT012 29/26 Q1009 NOSIG
Curacao Island (TNCC) 25.02.2021 02:00 UTC Zobrazit METAR
TNCC 250200Z 09016KT 9999 BKN018 27/22 Q1014 NOSIG
Reklama

Reklama


Počasí na Váš email

Emaily jsou bez reklamy a bez spamu



Odhlásit newsletter


Další české internetové stránky (nejen) o počasí najdete v katalogu TOPlist - weby o počasí nebo vyhledejte na internetu, co jste tu na 🌞 Slunečnu ⛅ zatím nenašli:
⭐ Přidat Slunečno.cz do oblíbených | 🏠 Nastavit Slunečno.cz jako HOMEPAGE

⬆️ Posunout stránku nahoru ⬆️
Reklama